createdAt,value
2022-12-09T00:01:25.765Z,0.42
2022-12-09T00:05:24.598Z,0.42
2022-12-09T00:09:22.200Z,0.42
2022-12-09T00:13:21.176Z,0.42
2022-12-09T00:17:23.501Z,0.42
2022-12-09T00:21:21.642Z,0.42
2022-12-09T00:25:21.104Z,0.42
2022-12-09T00:29:21.202Z,0.42
2022-12-09T00:33:21.423Z,0.42
2022-12-09T00:37:21.340Z,0.42
2022-12-09T00:41:21.593Z,0.42
2022-12-09T00:45:21.124Z,0.42
2022-12-09T00:49:21.291Z,0.42
2022-12-09T00:53:21.121Z,0.42
2022-12-09T00:57:20.290Z,0.42
2022-12-09T01:01:27.894Z,0.42
2022-12-09T01:05:22.560Z,0.42
2022-12-09T01:09:25.541Z,0.42
2022-12-09T01:13:21.062Z,0.42
2022-12-09T01:17:22.048Z,0.42
2022-12-09T01:21:21.412Z,0.42
2022-12-09T01:25:21.460Z,0.42
2022-12-09T01:29:21.810Z,0.42
2022-12-09T01:33:22.590Z,0.42
2022-12-09T01:37:22.268Z,0.42
2022-12-09T01:41:21.370Z,0.42
2022-12-09T01:45:22.232Z,0.42
2022-12-09T01:49:21.661Z,0.42
2022-12-09T01:53:21.584Z,0.42
2022-12-09T01:57:22.795Z,0.42
2022-12-09T02:01:26.330Z,0.42
2022-12-09T02:05:23.649Z,0.42
2022-12-09T02:09:21.847Z,0.42
2022-12-09T02:13:21.351Z,0.42
2022-12-09T02:17:22.153Z,0.42
2022-12-09T02:21:22.060Z,0.42
2022-12-09T02:25:21.216Z,0.42
2022-12-09T02:29:21.599Z,0.42
2022-12-09T02:33:23.275Z,0.42
2022-12-09T02:37:21.008Z,0.42
2022-12-09T02:41:25.728Z,0.42
2022-12-09T02:45:29.273Z,0.42
2022-12-09T02:49:24.045Z,0.42
2022-12-09T02:54:49.480Z,0.42
2022-12-09T02:57:21.153Z,0.42
2022-12-09T03:01:28.702Z,0.42
2022-12-09T03:05:22.101Z,0.42
2022-12-09T03:09:22.684Z,0.42
2022-12-09T03:13:21.018Z,0.42
2022-12-09T03:17:23.643Z,0.42
2022-12-09T03:21:21.982Z,0.42
2022-12-09T03:25:22.632Z,0.42
2022-12-09T03:29:21.948Z,0.42
2022-12-09T03:33:23.515Z,0.42
2022-12-09T03:37:21.198Z,0.42
2022-12-09T03:41:23.072Z,0.42
2022-12-09T03:45:20.954Z,0.42
2022-12-09T03:49:22.387Z,0.42
2022-12-09T03:53:21.455Z,0.42
2022-12-09T03:57:29.794Z,0.42
2022-12-09T04:01:26.122Z,0.42
2022-12-09T04:05:22.033Z,0.42
2022-12-09T04:09:26.276Z,0.42
2022-12-09T04:13:22.648Z,0.42
2022-12-09T04:17:22.737Z,0.42
2022-12-09T04:21:21.999Z,0.42
2022-12-09T04:25:21.756Z,0.42
2022-12-09T04:29:23.074Z,0.42
2022-12-09T04:33:22.887Z,0.42
2022-12-09T04:37:21.327Z,0.42
2022-12-09T04:41:29.689Z,0.42
2022-12-09T04:45:22.763Z,0.42
2022-12-09T04:49:22.221Z,0.42
2022-12-09T04:53:21.935Z,0.42
2022-12-09T04:57:21.561Z,0.42
2022-12-09T05:01:31.208Z,0.42
2022-12-09T05:05:24.322Z,0.42
2022-12-09T05:09:30.200Z,0.42
2022-12-09T05:13:23.110Z,0.42
2022-12-09T05:17:27.590Z,0.42
2022-12-09T05:21:22.505Z,0.42
2022-12-09T05:25:22.879Z,0.42
2022-12-09T05:29:23.519Z,0.42
2022-12-09T05:33:23.893Z,0.42
2022-12-09T05:37:22.929Z,0.42
2022-12-09T05:41:23.676Z,0.42
2022-12-09T05:45:22.442Z,0.42
2022-12-09T05:49:24.533Z,0.42
2022-12-09T05:53:22.030Z,0.42
2022-12-09T05:57:29.931Z,0.42
2022-12-09T06:01:27.839Z,0.42
2022-12-09T06:05:24.601Z,0.42
2022-12-09T06:09:29.320Z,0.42
2022-12-09T06:13:22.799Z,0.42
2022-12-09T06:17:23.582Z,0.42
2022-12-09T06:21:23.668Z,0.42
2022-12-09T06:25:29.687Z,0.42
2022-12-09T06:29:22.957Z,0.42
2022-12-09T06:34:04.505Z,0.42
2022-12-09T06:37:23.612Z,0.42
2022-12-09T06:41:23.266Z,0.42
2022-12-09T06:45:33.230Z,0.42
2022-12-09T06:49:24.721Z,0.42
2022-12-09T06:53:22.888Z,0.42
2022-12-09T06:57:30.653Z,0.42
2022-12-09T07:01:27.677Z,0.42
2022-12-09T07:05:26.268Z,0.42
2022-12-09T07:09:23.003Z,0.42
2022-12-09T07:13:22.347Z,0.42
2022-12-09T07:17:24.705Z,0.42
2022-12-09T07:21:29.073Z,0.42
2022-12-09T07:25:23.943Z,0.42
2022-12-09T07:29:23.034Z,0.42
2022-12-09T07:33:24.199Z,0.42
2022-12-09T07:37:30.452Z,0.42
2022-12-09T07:41:22.504Z,0.42
2022-12-09T07:45:22.106Z,0.42
2022-12-09T07:49:24.792Z,0.42
2022-12-09T07:53:21.670Z,0.42
2022-12-09T07:57:23.790Z,0.42
2022-12-09T08:01:26.902Z,0.42
2022-12-09T08:05:26.544Z,0.42
2022-12-09T08:09:25.583Z,0.42
2022-12-09T08:13:22.468Z,0.42
2022-12-09T08:17:24.604Z,0.42
2022-12-09T08:21:28.607Z,0.42
2022-12-09T08:25:24.412Z,0.42
2022-12-09T08:29:25.083Z,0.42
2022-12-09T08:33:24.586Z,0.42
2022-12-09T08:37:25.460Z,0.42
2022-12-09T08:41:23.646Z,0.42
2022-12-09T08:45:26.233Z,0.42
2022-12-09T08:49:24.308Z,0.42
2022-12-09T08:53:27.041Z,0.42
2022-12-09T08:57:23.500Z,0.42
2022-12-09T09:01:25.869Z,0.42
2022-12-09T09:05:25.157Z,0.42
2022-12-09T09:09:23.441Z,0.42
2022-12-09T09:13:29.344Z,0.42
2022-12-09T09:17:23.891Z,0.42
2022-12-09T09:21:25.554Z,0.42
2022-12-09T09:25:24.899Z,0.42
2022-12-09T09:29:28.965Z,0.42
2022-12-09T09:33:24.434Z,0.42
2022-12-09T09:37:30.449Z,0.42
2022-12-09T09:41:24.775Z,0.42
2022-12-09T09:45:22.738Z,0.42
2022-12-09T09:49:23.916Z,0.42
2022-12-09T09:53:23.547Z,0.42
2022-12-09T09:57:23.506Z,0.42
2022-12-09T10:01:32.764Z,0.42
2022-12-09T10:05:26.086Z,0.42
2022-12-09T10:09:25.121Z,0.42
2022-12-09T10:13:32.985Z,0.42
2022-12-09T10:17:24.234Z,0.42
2022-12-09T10:21:26.448Z,0.42
2022-12-09T10:25:27.816Z,0.42
2022-12-09T10:29:22.647Z,0.42
2022-12-09T10:33:23.403Z,0.42
2022-12-09T10:37:28.318Z,0.42
2022-12-09T10:41:23.827Z,0.42
2022-12-09T10:45:23.087Z,0.42
2022-12-09T10:49:32.332Z,0.42
2022-12-09T10:53:22.771Z,0.42
2022-12-09T10:57:22.106Z,0.14
2022-12-09T11:01:33.791Z,0.14
2022-12-09T11:05:25.743Z,0.14
2022-12-09T11:09:24.488Z,0.14
2022-12-09T11:13:28.779Z,0.14
2022-12-09T11:17:24.471Z,0.14
2022-12-09T11:21:25.258Z,0.14
2022-12-09T11:25:25.838Z,0.14
2022-12-09T11:29:22.319Z,0.14
2022-12-09T11:33:26.392Z,0.14
2022-12-09T11:37:29.314Z,0.14
2022-12-09T11:41:21.055Z,0.14
2022-12-09T11:45:20.406Z,0.14
2022-12-09T11:49:54.065Z,0.14
2022-12-09T11:53:20.950Z,0.14
2022-12-09T11:57:20.848Z,0.14
2022-12-09T12:01:26.435Z,0.23
2022-12-09T12:05:21.892Z,0.23
2022-12-09T12:09:21.912Z,0.49
2022-12-09T12:13:21.419Z,0.49
2022-12-09T12:17:25.405Z,0.49
2022-12-09T12:21:20.589Z,0.49
2022-12-09T12:25:28.841Z,0.49
2022-12-09T12:29:30.362Z,0.49
2022-12-09T12:34:39.430Z,0.49
2022-12-09T12:37:19.907Z,0.49
2022-12-09T12:41:23.611Z,0.49
2022-12-09T12:45:20.633Z,0.49
2022-12-09T12:49:20.694Z,0.49
2022-12-09T12:54:02.164Z,0.49
2022-12-09T12:57:21.659Z,0.49
2022-12-09T13:01:24.782Z,0.49
2022-12-09T13:05:20.415Z,0.49
2022-12-09T13:09:25.943Z,0.49
2022-12-09T13:13:20.840Z,0.49
2022-12-09T13:17:20.892Z,0.3
2022-12-09T13:21:20.787Z,0.58
2022-12-09T13:25:23.203Z,0.58
2022-12-09T13:29:20.874Z,0.73
2022-12-09T13:33:20.371Z,0.87
2022-12-09T13:37:32.482Z,0.87
2022-12-09T13:41:20.759Z,1
2022-12-09T13:45:20.399Z,1.12
2022-12-09T13:49:24.632Z,1.12
2022-12-09T13:53:20.625Z,1.2
2022-12-09T13:57:20.857Z,1.28
2022-12-09T14:01:27.479Z,1.32
2022-12-09T14:05:20.219Z,1.33
2022-12-09T14:09:21.328Z,1.38
2022-12-09T14:13:29.008Z,1.38
2022-12-09T14:17:21.036Z,1.42
2022-12-09T14:21:20.750Z,1.45
2022-12-09T14:25:20.078Z,1.45
2022-12-09T14:29:20.961Z,1.48
2022-12-09T14:33:20.561Z,1.5
2022-12-09T14:37:28.048Z,1.5
2022-12-09T14:41:20.954Z,1.5
2022-12-09T14:45:20.571Z,1.55
2022-12-09T14:49:20.211Z,1.55
2022-12-09T14:53:20.891Z,1.57
2022-12-09T14:57:27.329Z,1.57
2022-12-09T15:01:23.541Z,1.57
2022-12-09T15:05:21.624Z,1.57
2022-12-09T15:09:21.243Z,1.63
2022-12-09T15:13:20.322Z,1.63
2022-12-09T15:17:24.587Z,1.64
2022-12-09T15:21:21.844Z,1.66
2022-12-09T15:25:35.800Z,1.66
2022-12-09T15:29:23.215Z,1.67
2022-12-09T15:33:21.095Z,1.68
2022-12-09T15:37:20.457Z,1.68
2022-12-09T15:41:21.057Z,1.71
2022-12-09T15:45:20.780Z,1.71
2022-12-09T15:49:20.552Z,1.71
2022-12-09T15:53:21.199Z,1.71
2022-12-09T15:57:21.005Z,1.71
2022-12-09T16:01:29.201Z,1.71
2022-12-09T16:05:20.443Z,1.71
2022-12-09T16:09:21.180Z,1.71
2022-12-09T16:13:20.585Z,1.71
2022-12-09T16:17:20.794Z,1.71
2022-12-09T16:21:20.990Z,1.71
2022-12-09T16:26:03.140Z,1.71
2022-12-09T16:29:21.375Z,1.71
2022-12-09T16:33:21.223Z,1.71
2022-12-09T16:37:21.753Z,1.71
2022-12-09T16:41:20.695Z,1.71
2022-12-09T16:45:21.448Z,1.71
2022-12-09T16:49:27.301Z,1.71
2022-12-09T16:53:21.054Z,1.71
2022-12-09T16:57:20.338Z,1.71
2022-12-09T17:01:24.045Z,1.71
2022-12-09T17:05:20.819Z,1.71
2022-12-09T17:09:20.394Z,1.71
2022-12-09T17:13:21.083Z,1.71
2022-12-09T17:17:23.621Z,1.71
2022-12-09T17:21:20.371Z,1.71
2022-12-09T17:25:20.900Z,1.71
2022-12-09T17:29:35.015Z,1.71
2022-12-09T17:33:21.132Z,1.71
2022-12-09T17:37:20.850Z,1.71
2022-12-09T17:41:22.811Z,1.71
2022-12-09T17:45:21.359Z,1.71
2022-12-09T17:49:20.808Z,1.71
2022-12-09T17:53:20.442Z,1.71
2022-12-09T17:57:21.244Z,1.71
2022-12-09T18:01:23.740Z,1.71
2022-12-09T18:05:27.189Z,1.71
2022-12-09T18:09:20.934Z,1.71
2022-12-09T18:13:20.627Z,1.71
2022-12-09T18:17:21.493Z,1.71
2022-12-09T18:21:27.099Z,1.71
2022-12-09T18:25:20.849Z,1.71
2022-12-09T18:29:20.636Z,1.71
2022-12-09T18:33:21.479Z,1.71
2022-12-09T18:37:20.588Z,1.71
2022-12-09T18:41:20.397Z,1.71
2022-12-09T18:45:20.808Z,1.71
2022-12-09T18:49:20.806Z,1.71
2022-12-09T18:53:20.932Z,1.71
2022-12-09T18:57:20.647Z,1.71
2022-12-09T19:01:20.394Z,1.71
2022-12-09T19:05:20.695Z,1.71
2022-12-09T19:09:20.541Z,1.71
2022-12-09T19:14:04.089Z,1.71
2022-12-09T19:17:20.657Z,1.71
2022-12-09T19:21:20.774Z,1.71
2022-12-09T19:25:27.772Z,1.71
2022-12-09T19:29:20.139Z,1.71
2022-12-09T19:33:59.223Z,1.71
2022-12-09T19:37:20.587Z,1.71
2022-12-09T19:41:20.081Z,1.71
2022-12-09T19:45:59.795Z,1.71
2022-12-09T19:49:20.731Z,1.71
2022-12-09T19:53:20.662Z,1.71
2022-12-09T19:57:20.281Z,1.71
2022-12-09T20:01:27.145Z,1.71
2022-12-09T20:05:56.913Z,1.71
2022-12-09T20:09:20.675Z,1.71
2022-12-09T20:13:20.390Z,1.71
2022-12-09T20:17:20.568Z,1.71
2022-12-09T20:21:23.061Z,1.71
2022-12-09T20:25:20.729Z,1.71
2022-12-09T20:29:20.433Z,1.71
2022-12-09T20:33:20.145Z,1.71
2022-12-09T20:37:20.758Z,1.71
2022-12-09T20:41:25.901Z,1.71
2022-12-09T20:45:20.927Z,1.71
2022-12-09T20:49:20.671Z,1.71
2022-12-09T20:53:20.480Z,1.71
2022-12-09T20:57:20.347Z,1.71
2022-12-09T21:01:24.010Z,1.71
2022-12-09T21:05:20.467Z,1.71
2022-12-09T21:09:27.840Z,1.71
2022-12-09T21:13:20.491Z,1.71
2022-12-09T21:17:20.552Z,1.71
2022-12-09T21:21:26.503Z,1.71
2022-12-09T21:25:20.837Z,1.71
2022-12-09T21:29:20.161Z,1.71
2022-12-09T21:33:21.189Z,1.71
2022-12-09T21:37:20.723Z,1.71
2022-12-09T21:41:21.213Z,1.71
2022-12-09T21:45:20.563Z,1.71
2022-12-09T21:49:27.124Z,1.71
2022-12-09T21:53:20.765Z,1.71
2022-12-09T21:57:20.502Z,1.71
2022-12-09T22:01:27.163Z,1.71
2022-12-09T22:05:20.605Z,1.71
2022-12-09T22:09:20.611Z,1.71
2022-12-09T22:13:20.865Z,1.71
2022-12-09T22:17:21.134Z,1.71
2022-12-09T22:22:32.404Z,1.71
2022-12-09T22:25:20.694Z,1.71
2022-12-09T22:29:20.608Z,1.71
2022-12-09T22:33:26.535Z,1.71
2022-12-09T22:37:58.040Z,1.71
2022-12-09T22:41:20.745Z,1.71
2022-12-09T22:45:20.441Z,1.71
2022-12-09T22:49:20.950Z,1.71
2022-12-09T22:53:20.798Z,1.71
2022-12-09T22:57:20.314Z,1.71
2022-12-09T23:01:24.917Z,1.71
2022-12-09T23:05:20.052Z,1.71
2022-12-09T23:09:20.980Z,1.71
2022-12-09T23:13:20.552Z,1.71
2022-12-09T23:17:20.480Z,1.71
2022-12-09T23:21:20.910Z,1.71
2022-12-09T23:25:21.516Z,1.71
2022-12-09T23:29:20.064Z,1.71
2022-12-09T23:33:21.083Z,1.71
2022-12-09T23:37:20.457Z,1.71
2022-12-09T23:41:20.372Z,1.71
2022-12-09T23:45:21.084Z,1.71
2022-12-09T23:49:20.963Z,1.71
2022-12-09T23:53:20.360Z,1.71
2022-12-09T23:57:20.224Z,1.71
